sensor_id;sensor_type;location;lat;lon;timestamp;pressure;altitude;pressure_sealevel;temperature;humidity
4085;BME280;2057;50.858;6.572;2022-09-03T00:02:00;99885.03;;;18.28;54.10
4085;BME280;2057;50.858;6.572;2022-09-03T00:04:55;99884.19;;;18.29;54.15
4085;BME280;2057;50.858;6.572;2022-09-03T00:07:33;99883.34;;;18.31;54.06
4085;BME280;2057;50.858;6.572;2022-09-03T00:10:04;99884.13;;;18.21;54.81
4085;BME280;2057;50.858;6.572;2022-09-03T00:12:35;99881.50;;;18.13;54.70
4085;BME280;2057;50.858;6.572;2022-09-03T00:17:44;99878.00;;;18.02;55.36
4085;BME280;2057;50.858;6.572;2022-09-03T00:20:19;99883.16;;;18.05;55.15
4085;BME280;2057;50.858;6.572;2022-09-03T00:22:48;99883.84;;;17.92;55.59
4085;BME280;2057;50.858;6.572;2022-09-03T00:25:19;99883.00;;;17.90;55.50
4085;BME280;2057;50.858;6.572;2022-09-03T00:27:50;99879.50;;;17.84;55.70
4085;BME280;2057;50.858;6.572;2022-09-03T00:30:19;99882.25;;;18.00;55.37
4085;BME280;2057;50.858;6.572;2022-09-03T00:32:49;99882.25;;;18.00;55.60
4085;BME280;2057;50.858;6.572;2022-09-03T00:35:19;99875.34;;;17.94;55.83
4085;BME280;2057;50.858;6.572;2022-09-03T00:37:50;99877.03;;;17.94;55.75
4085;BME280;2057;50.858;6.572;2022-09-03T00:41:11;99877.00;;;17.89;55.90
4085;BME280;2057;50.858;6.572;2022-09-03T00:46:46;99878.63;;;17.82;56.24
4085;BME280;2057;50.858;6.572;2022-09-03T00:49:31;99876.00;;;17.76;56.23
4085;BME280;2057;50.858;6.572;2022-09-03T01:00:11;99866.56;;;17.72;56.10
4085;BME280;2057;50.858;6.572;2022-09-03T01:05:54;99867.47;;;17.77;55.88
4085;BME280;2057;50.858;6.572;2022-09-03T01:13:37;99869.94;;;17.68;56.80
4085;BME280;2057;50.858;6.572;2022-09-03T01:16:11;99867.31;;;17.62;56.68
4085;BME280;2057;50.858;6.572;2022-09-03T01:27:45;99873.25;;;17.56;57.39
4085;BME280;2057;50.858;6.572;2022-09-03T01:30:14;99875.78;;;17.51;57.45
4085;BME280;2057;50.858;6.572;2022-09-03T01:32:48;99874.84;;;17.45;57.62
4085;BME280;2057;50.858;6.572;2022-09-03T01:35:47;99871.47;;;17.52;57.45
4085;BME280;2057;50.858;6.572;2022-09-03T01:44:07;99867.13;;;17.43;58.06
4085;BME280;2057;50.858;6.572;2022-09-03T01:46:41;99870.53;;;17.40;58.17
4085;BME280;2057;50.858;6.572;2022-09-03T01:49:20;99862.03;;;17.46;57.57
4085;BME280;2057;50.858;6.572;2022-09-03T01:51:57;99867.81;;;17.27;58.73
4085;BME280;2057;50.858;6.572;2022-09-03T01:54:39;99866.13;;;17.32;58.24
4085;BME280;2057;50.858;6.572;2022-09-03T02:00:14;99860.22;;;17.39;57.88
4085;BME280;2057;50.858;6.572;2022-09-03T02:02:41;99864.47;;;17.34;58.18
4085;BME280;2057;50.858;6.572;2022-09-03T02:05:11;99866.09;;;17.25;58.38
4085;BME280;2057;50.858;6.572;2022-09-03T02:07:47;99861.78;;;17.23;58.38
4085;BME280;2057;50.858;6.572;2022-09-03T02:10:19;99861.00;;;17.30;58.26
4085;BME280;2057;50.858;6.572;2022-09-03T02:12:49;99862.72;;;17.31;58.29
4085;BME280;2057;50.858;6.572;2022-09-03T02:15:20;99863.41;;;17.16;58.76
4085;BME280;2057;50.858;6.572;2022-09-03T02:17:47;99860.84;;;17.18;58.79
4085;BME280;2057;50.858;6.572;2022-09-03T02:20:19;99858.28;;;17.16;58.29
4085;BME280;2057;50.858;6.572;2022-09-03T02:22:47;99853.91;;;17.07;58.57
4085;BME280;2057;50.858;6.572;2022-09-03T02:25:14;99854.88;;;17.17;58.24
4085;BME280;2057;50.858;6.572;2022-09-03T02:27:40;99852.25;;;17.11;59.00
4085;BME280;2057;50.858;6.572;2022-09-03T02:30:07;99857.38;;;17.11;58.83
4085;BME280;2057;50.858;6.572;2022-09-03T02:32:32;99853.97;;;17.12;58.65
4085;BME280;2057;50.858;6.572;2022-09-03T02:34:58;99858.94;;;16.98;58.57
4085;BME280;2057;50.858;6.572;2022-09-03T02:37:23;99859.03;;;17.07;59.05
4085;BME280;2057;50.858;6.572;2022-09-03T02:39:49;99864.06;;;17.00;59.35
4085;BME280;2057;50.858;6.572;2022-09-03T02:42:17;99852.03;;;16.96;59.18
4085;BME280;2057;50.858;6.572;2022-09-03T02:44:54;99859.59;;;16.88;59.19
4085;BME280;2057;50.858;6.572;2022-09-03T02:47:22;99851.16;;;16.93;59.61
4085;BME280;2057;50.858;6.572;2022-09-03T02:49:53;99859.59;;;16.88;59.88
4085;BME280;2057;50.858;6.572;2022-09-03T02:52:18;99854.41;;;16.83;59.63
4085;BME280;2057;50.858;6.572;2022-09-03T02:54:44;99853.53;;;16.81;59.98
4085;BME280;2057;50.858;6.572;2022-09-03T02:57:13;99855.59;;;17.05;59.40
4085;BME280;2057;50.858;6.572;2022-09-03T02:59:38;99852.06;;;16.97;59.33
4085;BME280;2057;50.858;6.572;2022-09-03T03:02:05;99851.09;;;16.90;59.83
4085;BME280;2057;50.858;6.572;2022-09-03T03:04:31;99852.03;;;16.94;59.67
4085;BME280;2057;50.858;6.572;2022-09-03T03:06:57;99850.28;;;16.93;60.05
4085;BME280;2057;50.858;6.572;2022-09-03T03:09:22;99857.16;;;16.94;59.98
4085;BME280;2057;50.858;6.572;2022-09-03T03:11:48;99856.31;;;16.97;59.78
4085;BME280;2057;50.858;6.572;2022-09-03T03:14:14;99848.53;;;16.89;59.70
4085;BME280;2057;50.858;6.572;2022-09-03T03:16:40;99841.81;;;16.99;59.29
4085;BME280;2057;50.858;6.572;2022-09-03T03:19:05;99847.72;;;16.93;59.32
4085;BME280;2057;50.858;6.572;2022-09-03T03:21:30;99852.81;;;16.91;59.69
4085;BME280;2057;50.858;6.572;2022-09-03T03:23:56;99840.94;;;16.97;60.12
4085;BME280;2057;50.858;6.572;2022-09-03T03:26:22;99842.56;;;16.90;59.60
4085;BME280;2057;50.858;6.572;2022-09-03T03:28:49;99839.22;;;16.96;59.48
4085;BME280;2057;50.858;6.572;2022-09-03T03:31:17;99846.47;;;16.65;60.74
4085;BME280;2057;50.858;6.572;2022-09-03T03:33:50;99845.00;;;16.84;60.08
4085;BME280;2057;50.858;6.572;2022-09-03T03:36:16;99842.38;;;16.76;60.66
4085;BME280;2057;50.858;6.572;2022-09-03T03:38:43;99839.00;;;16.80;60.29
4085;BME280;2057;50.858;6.572;2022-09-03T03:41:17;99837.44;;;16.91;60.04
4085;BME280;2057;50.858;6.572;2022-09-03T03:43:43;99840.66;;;16.78;60.47
4085;BME280;2057;50.858;6.572;2022-09-03T03:46:10;99835.53;;;16.76;60.51
4085;BME280;2057;50.858;6.572;2022-09-03T03:48:36;99833.72;;;16.68;60.84
4085;BME280;2057;50.858;6.572;2022-09-03T03:51:04;99837.00;;;16.60;60.75
4085;BME280;2057;50.858;6.572;2022-09-03T03:53:31;99836.34;;;16.72;60.70
4085;BME280;2057;50.858;6.572;2022-09-03T03:55:59;99835.66;;;16.87;60.58
4085;BME280;2057;50.858;6.572;2022-09-03T03:58:27;99832.06;;;16.73;60.17
4085;BME280;2057;50.858;6.572;2022-09-03T04:00:52;99836.41;;;16.78;60.64
4085;BME280;2057;50.858;6.572;2022-09-03T04:03:18;99831.41;;;16.88;60.06
4085;BME280;2057;50.858;6.572;2022-09-03T04:05:54;99827.09;;;16.85;60.21
4085;BME280;2057;50.858;6.572;2022-09-03T04:08:20;99830.59;;;16.92;60.07
4085;BME280;2057;50.858;6.572;2022-09-03T04:10:46;99821.22;;;16.92;59.85
4085;BME280;2057;50.858;6.572;2022-09-03T04:13:20;99828.16;;;17.00;59.69
4085;BME280;2057;50.858;6.572;2022-09-03T04:15:45;99820.25;;;16.86;59.84
4085;BME280;2057;50.858;6.572;2022-09-03T04:18:11;99825.44;;;16.90;59.89
4085;BME280;2057;50.858;6.572;2022-09-03T04:20:36;99832.91;;;16.72;60.76
4085;BME280;2057;50.858;6.572;2022-09-03T04:23:03;99823.34;;;16.61;60.70
4085;BME280;2057;50.858;6.572;2022-09-03T04:25:29;99826.22;;;16.85;60.71
4085;BME280;2057;50.858;6.572;2022-09-03T04:27:55;99823.72;;;16.91;60.46
4085;BME280;2057;50.858;6.572;2022-09-03T04:30:21;99826.16;;;16.80;60.21
4085;BME280;2057;50.858;6.572;2022-09-03T04:32:49;99826.22;;;16.85;60.59
4085;BME280;2057;50.858;6.572;2022-09-03T04:35:21;99830.50;;;16.84;60.07
4085;BME280;2057;50.858;6.572;2022-09-03T04:37:47;99824.44;;;16.76;60.38
4085;BME280;2057;50.858;6.572;2022-09-03T04:40:12;99826.16;;;16.80;60.79
4085;BME280;2057;50.858;6.572;2022-09-03T04:42:38;99820.84;;;16.65;61.00
4085;BME280;2057;50.858;6.572;2022-09-03T04:45:04;99831.19;;;16.71;60.73
4085;BME280;2057;50.858;6.572;2022-09-03T04:47:29;99830.50;;;16.84;60.83
4085;BME280;2057;50.858;6.572;2022-09-03T04:49:55;99828.66;;;16.74;61.02
4085;BME280;2057;50.858;6.572;2022-09-03T04:52:21;99822.81;;;16.84;60.17
4085;BME280;2057;50.858;6.572;2022-09-03T04:54:46;99828.72;;;16.80;60.87
4085;BME280;2057;50.858;6.572;2022-09-03T04:57:11;99828.72;;;16.80;60.81
4085;BME280;2057;50.858;6.572;2022-09-03T04:59:37;99830.50;;;16.84;60.59
4085;BME280;2057;50.858;6.572;2022-09-03T05:02:05;99832.25;;;16.85;60.79
4085;BME280;2057;50.858;6.572;2022-09-03T05:04:30;99831.44;;;16.91;60.66
4085;BME280;2057;50.858;6.572;2022-09-03T05:06:56;99838.25;;;16.89;60.64
4085;BME280;2057;50.858;6.572;2022-09-03T05:09:21;99834.94;;;16.95;60.75
4085;BME280;2057;50.858;6.572;2022-09-03T05:11:46;99834.88;;;16.91;60.68
4085;BME280;2057;50.858;6.572;2022-09-03T05:14:12;99830.56;;;16.90;60.67
4085;BME280;2057;50.858;6.572;2022-09-03T05:16:37;99830.72;;;16.98;60.67
4085;BME280;2057;50.858;6.572;2022-09-03T05:19:03;99822.97;;;16.93;60.88
4085;BME280;2057;50.858;6.572;2022-09-03T05:21:33;99823.06;;;17.03;60.69
4085;BME280;2057;50.858;6.572;2022-09-03T05:24:00;99835.03;;;17.02;61.08
4085;BME280;2057;50.858;6.572;2022-09-03T05:26:28;99831.56;;;16.99;60.83
4085;BME280;2057;50.858;6.572;2022-09-03T05:28:56;99834.88;;;16.91;61.08
4085;BME280;2057;50.858;6.572;2022-09-03T05:31:22;99826.38;;;16.94;61.26
4085;BME280;2057;50.858;6.572;2022-09-03T05:33:52;99825.53;;;16.97;61.85
4085;BME280;2057;50.858;6.572;2022-09-03T05:36:20;99823.88;;;16.99;61.43
4085;BME280;2057;50.858;6.572;2022-09-03T05:38:47;99837.53;;;16.98;61.75
4085;BME280;2057;50.858;6.572;2022-09-03T05:41:15;99840.75;;;16.84;62.10
4085;BME280;2057;50.858;6.572;2022-09-03T05:43:41;99841.66;;;16.86;61.87
4085;BME280;2057;50.858;6.572;2022-09-03T05:46:13;99838.28;;;16.92;61.94
4085;BME280;2057;50.858;6.572;2022-09-03T05:48:40;99840.09;;;16.96;61.69
4085;BME280;2057;50.858;6.572;2022-09-03T05:51:12;99836.78;;;17.06;61.48
4085;BME280;2057;50.858;6.572;2022-09-03T05:53:41;99840.25;;;17.10;61.42
4085;BME280;2057;50.858;6.572;2022-09-03T05:56:12;99846.13;;;17.01;62.00
4085;BME280;2057;50.858;6.572;2022-09-03T05:58:40;99845.25;;;16.99;62.07
4085;BME280;2057;50.858;6.572;2022-09-03T06:01:21;99840.97;;;17.00;61.89
4085;BME280;2057;50.858;6.572;2022-09-03T06:03:56;99844.34;;;16.96;62.38
4085;BME280;2057;50.858;6.572;2022-09-03T06:06:22;99852.91;;;16.95;62.05
4085;BME280;2057;50.858;6.572;2022-09-03T06:08:54;99848.41;;;16.83;62.34
4085;BME280;2057;50.858;6.572;2022-09-03T06:11:21;99847.63;;;16.87;62.53
4085;BME280;2057;50.858;6.572;2022-09-03T06:13:51;99852.97;;;17.01;62.17
4085;BME280;2057;50.858;6.572;2022-09-03T06:16:16;99851.25;;;17.00;62.48
4085;BME280;2057;50.858;6.572;2022-09-03T06:18:41;99856.53;;;17.14;61.58
4085;BME280;2057;50.858;6.572;2022-09-03T06:21:07;99854.91;;;17.20;61.62
4085;BME280;2057;50.858;6.572;2022-09-03T06:23:34;99854.03;;;17.18;61.67
4085;BME280;2057;50.858;6.572;2022-09-03T06:26:10;99855.59;;;17.07;61.71
4085;BME280;2057;50.858;6.572;2022-09-03T06:28:38;99855.53;;;17.02;62.09
4085;BME280;2057;50.858;6.572;2022-09-03T06:31:06;99854.69;;;17.03;62.55
4085;BME280;2057;50.858;6.572;2022-09-03T06:33:35;99854.81;;;17.14;62.08
4085;BME280;2057;50.858;6.572;2022-09-03T06:36:03;99854.91;;;17.20;61.83
4085;BME280;2057;50.858;6.572;2022-09-03T06:38:30;99854.94;;;17.23;61.89
4085;BME280;2057;50.858;6.572;2022-09-03T06:41:00;99855.81;;;17.25;62.54
4085;BME280;2057;50.858;6.572;2022-09-03T06:43:30;99855.09;;;17.36;61.71
4085;BME280;2057;50.858;6.572;2022-09-03T06:45:58;99852.53;;;17.37;61.92
4085;BME280;2057;50.858;6.572;2022-09-03T06:48:24;99856.97;;;17.51;61.55
4085;BME280;2057;50.858;6.572;2022-09-03T06:51:10;99859.47;;;17.48;62.23
4085;BME280;2057;50.858;6.572;2022-09-03T06:53:37;99863.78;;;17.52;61.67
4085;BME280;2057;50.858;6.572;2022-09-03T06:56:06;99854.16;;;17.31;62.77
4085;BME280;2057;50.858;6.572;2022-09-03T06:58:41;99859.44;;;17.43;62.43
4085;BME280;2057;50.858;6.572;2022-09-03T07:01:12;99858.59;;;17.46;62.32
4085;BME280;2057;50.858;6.572;2022-09-03T07:03:39;99860.44;;;17.58;61.89
4085;BME280;2057;50.858;6.572;2022-09-03T07:06:08;99861.41;;;17.67;61.24
4085;BME280;2057;50.858;6.572;2022-09-03T07:08:34;99870.84;;;17.73;61.15
4085;BME280;2057;50.858;6.572;2022-09-03T07:11:00;99864.16;;;17.87;60.77
4085;BME280;2057;50.858;6.572;2022-09-03T07:13:29;99865.84;;;17.85;60.74
4085;BME280;2057;50.858;6.572;2022-09-03T07:16:24;99865.00;;;17.88;60.51
4085;BME280;2057;50.858;6.572;2022-09-03T07:18:50;99870.25;;;17.96;60.69
4085;BME280;2057;50.858;6.572;2022-09-03T07:21:21;99866.84;;;18.00;60.67
4085;BME280;2057;50.858;6.572;2022-09-03T07:23:48;99878.06;;;18.11;59.40
4085;BME280;2057;50.858;6.572;2022-09-03T07:26:16;99878.03;;;18.08;59.54
4085;BME280;2057;50.858;6.572;2022-09-03T07:28:44;99879.78;;;18.11;59.85
4085;BME280;2057;50.858;6.572;2022-09-03T07:31:19;99879.03;;;18.23;59.56
4085;BME280;2057;50.858;6.572;2022-09-03T07:33:46;99886.78;;;18.29;59.87
4085;BME280;2057;50.858;6.572;2022-09-03T07:36:15;99877.34;;;18.25;59.29
4085;BME280;2057;50.858;6.572;2022-09-03T07:38:42;99879.94;;;18.31;59.17
4085;BME280;2057;50.858;6.572;2022-09-03T07:41:12;99873.91;;;18.27;59.27
4085;BME280;2057;50.858;6.572;2022-09-03T07:43:40;99876.59;;;18.41;59.28
4085;BME280;2057;50.858;6.572;2022-09-03T07:46:11;99879.13;;;18.38;58.84
4085;BME280;2057;50.858;6.572;2022-09-03T07:48:39;99879.16;;;18.44;59.12
4085;BME280;2057;50.858;6.572;2022-09-03T07:51:05;99876.63;;;18.49;59.39
4085;BME280;2057;50.858;6.572;2022-09-03T07:53:30;99877.53;;;18.57;58.73
4085;BME280;2057;50.858;6.572;2022-09-03T07:56:03;99887.84;;;18.59;59.07
4085;BME280;2057;50.858;6.572;2022-09-03T07:58:30;99878.44;;;18.62;59.66
4085;BME280;2057;50.858;6.572;2022-09-03T08:00:56;99877.63;;;18.70;59.05
4085;BME280;2057;50.858;6.572;2022-09-03T08:03:22;99881.91;;;18.72;58.77
4085;BME280;2057;50.858;6.572;2022-09-03T08:05:47;99880.25;;;18.87;58.71
4085;BME280;2057;50.858;6.572;2022-09-03T08:08:13;99876.09;;;19.09;58.79
4085;BME280;2057;50.858;6.572;2022-09-03T08:10:40;99879.66;;;19.39;59.04
4085;BME280;2057;50.858;6.572;2022-09-03T08:13:05;99875.41;;;19.64;58.95
4085;BME280;2057;50.858;6.572;2022-09-03T08:15:32;99884.94;;;19.92;59.27
4085;BME280;2057;50.858;6.572;2022-09-03T08:17:58;99878.94;;;19.97;59.42
4085;BME280;2057;50.858;6.572;2022-09-03T08:20:25;99883.22;;;20.09;60.08
4085;BME280;2057;50.858;6.572;2022-09-03T08:22:51;99878.06;;;20.32;60.08
4085;BME280;2057;50.858;6.572;2022-09-03T08:25:16;99879.75;;;20.50;59.51
4085;BME280;2057;50.858;6.572;2022-09-03T08:27:41;99878.84;;;20.72;60.04
4085;BME280;2057;50.858;6.572;2022-09-03T08:30:07;99879.69;;;20.84;58.53
4085;BME280;2057;50.858;6.572;2022-09-03T08:32:38;99877.91;;;21.04;58.23
4085;BME280;2057;50.858;6.572;2022-09-03T08:35:06;99881.38;;;20.96;58.32
4085;BME280;2057;50.858;6.572;2022-09-03T08:37:33;99889.97;;;21.00;58.70
4085;BME280;2057;50.858;6.572;2022-09-03T08:45:21;99890.88;;;20.69;60.87
4085;BME280;2057;50.858;6.572;2022-09-03T08:47:51;99890.06;;;20.67;60.11
4085;BME280;2057;50.858;6.572;2022-09-03T08:50:26;99892.63;;;20.60;60.80
4085;BME280;2057;50.858;6.572;2022-09-03T08:53:02;99900.38;;;20.57;60.71
4085;BME280;2057;50.858;6.572;2022-09-03T08:55:34;99894.41;;;20.41;61.29
4085;BME280;2057;50.858;6.572;2022-09-03T08:58:11;99894.38;;;20.50;60.81
4085;BME280;2057;50.858;6.572;2022-09-03T09:06:16;99898.66;;;20.57;61.38
4085;BME280;2057;50.858;6.572;2022-09-03T09:09:04;99897.81;;;20.58;61.61
4085;BME280;2057;50.858;6.572;2022-09-03T09:11:47;99897.75;;;20.71;61.02
4085;BME280;2057;50.858;6.572;2022-09-03T09:14:42;99904.66;;;20.81;60.21
4085;BME280;2057;50.858;6.572;2022-09-03T09:20:08;99893.25;;;21.33;59.54
4085;BME280;2057;50.858;6.572;2022-09-03T09:22:40;99892.31;;;21.54;58.78
4085;BME280;2057;50.858;6.572;2022-09-03T09:25:13;99899.09;;;21.74;58.84
4085;BME280;2057;50.858;6.572;2022-09-03T09:28:02;99893.94;;;21.74;58.92
4085;BME280;2057;50.858;6.572;2022-09-03T09:30:29;99899.13;;;21.71;59.24
4085;BME280;2057;50.858;6.572;2022-09-03T09:32:55;99897.25;;;21.94;59.04
4085;BME280;2057;50.858;6.572;2022-09-03T09:35:21;99891.22;;;21.89;58.46
4085;BME280;2057;50.858;6.572;2022-09-03T09:37:54;99888.69;;;21.86;58.40
4085;BME280;2057;50.858;6.572;2022-09-03T09:40:35;99887.66;;;22.04;58.08
4085;BME280;2057;50.858;6.572;2022-09-03T09:43:09;99895.50;;;21.97;58.64
4085;BME280;2057;50.858;6.572;2022-09-03T09:45:37;99894.88;;;21.59;59.38
4085;BME280;2057;50.858;6.572;2022-09-03T09:48:08;99899.22;;;21.46;59.11
4085;BME280;2057;50.858;6.572;2022-09-03T09:50:35;99894.94;;;21.43;59.81
4085;BME280;2057;50.858;6.572;2022-09-03T09:53:03;99892.31;;;21.48;59.73
4085;BME280;2057;50.858;6.572;2022-09-03T09:55:32;99897.47;;;21.54;59.57
4085;BME280;2057;50.858;6.572;2022-09-03T09:58:06;99895.75;;;21.52;59.03
4085;BME280;2057;50.858;6.572;2022-09-03T10:00:34;99905.19;;;21.57;58.47
4085;BME280;2057;50.858;6.572;2022-09-03T10:03:06;99903.44;;;21.69;58.84
4085;BME280;2057;50.858;6.572;2022-09-03T10:05:35;99902.47;;;21.85;59.50
4085;BME280;2057;50.858;6.572;2022-09-03T10:08:18;99905.03;;;21.87;58.74
4085;BME280;2057;50.858;6.572;2022-09-03T10:10:47;99896.34;;;21.97;58.87
4085;BME280;2057;50.858;6.572;2022-09-03T10:13:41;99899.53;;;22.30;58.46
4085;BME280;2057;50.858;6.572;2022-09-03T10:18:43;99900.72;;;22.85;55.90
4085;BME280;2057;50.858;6.572;2022-09-03T10:24:10;99901.38;;;23.03;55.38
4085;BME280;2057;50.858;6.572;2022-09-03T10:26:42;99901.25;;;23.18;55.34
4085;BME280;2057;50.858;6.572;2022-09-03T10:29:11;99902.94;;;23.19;55.41
4085;BME280;2057;50.858;6.572;2022-09-03T10:32:11;99896.06;;;23.18;55.51
4085;BME280;2057;50.858;6.572;2022-09-03T10:35:22;99887.34;;;23.26;56.24
4085;BME280;2057;50.858;6.572;2022-09-03T10:41:11;99895.25;;;23.77;55.45
4085;BME280;2057;50.858;6.572;2022-09-03T10:46:28;99895.00;;;23.93;54.49
4085;BME280;2057;50.858;6.572;2022-09-03T10:51:41;99878.78;;;23.80;53.97
4085;BME280;2057;50.858;6.572;2022-09-03T10:57:44;99885.28;;;24.09;53.67
4085;BME280;2057;50.858;6.572;2022-09-03T11:00:14;99888.84;;;24.03;54.76
4085;BME280;2057;50.858;6.572;2022-09-03T11:06:41;99877.47;;;24.10;55.02
4085;BME280;2057;50.858;6.572;2022-09-03T11:09:06;99867.25;;;24.51;54.09
4085;BME280;2057;50.858;6.572;2022-09-03T11:11:46;99865.78;;;24.83;52.43
4085;BME280;2057;50.858;6.572;2022-09-03T11:14:23;99867.63;;;24.78;52.98
4085;BME280;2057;50.858;6.572;2022-09-03T11:16:59;99855.69;;;24.69;53.17
4085;BME280;2057;50.858;6.572;2022-09-03T11:19:40;99848.22;;;24.96;53.38
4085;BME280;2057;50.858;6.572;2022-09-03T11:22:10;99851.50;;;25.04;52.65
4085;BME280;2057;50.858;6.572;2022-09-03T11:24:38;99855.56;;;25.18;51.99
4085;BME280;2057;50.858;6.572;2022-09-03T11:35:13;99850.03;;;25.32;52.68
4085;BME280;2057;50.858;6.572;2022-09-03T11:44:18;99840.47;;;25.34;51.47
4085;BME280;2057;50.858;6.572;2022-09-03T11:46:57;99834.38;;;25.35;51.70
4085;BME280;2057;50.858;6.572;2022-09-03T11:49:31;99837.41;;;25.56;51.91
4085;BME280;2057;50.858;6.572;2022-09-03T11:52:03;99827.84;;;25.56;50.93
4085;BME280;2057;50.858;6.572;2022-09-03T11:54:32;99821.88;;;25.52;52.08
4085;BME280;2057;50.858;6.572;2022-09-03T11:57:22;99818.84;;;25.71;51.44
4085;BME280;2057;50.858;6.572;2022-09-03T11:59:50;99821.72;;;25.59;51.76
4085;BME280;2057;50.858;6.572;2022-09-03T12:02:28;99825.25;;;25.58;52.10
4085;BME280;2057;50.858;6.572;2022-09-03T12:10:25;99821.88;;;25.13;53.00
4085;BME280;2057;50.858;6.572;2022-09-03T12:13:06;99825.66;;;25.75;52.21
4085;BME280;2057;50.858;6.572;2022-09-03T12:18:30;99829.22;;;26.07;51.10
4085;BME280;2057;50.858;6.572;2022-09-03T12:23:30;99840.38;;;25.76;51.48
4085;BME280;2057;50.858;6.572;2022-09-03T12:26:04;99838.88;;;25.67;51.37
4085;BME280;2057;50.858;6.572;2022-09-03T12:28:30;99837.97;;;25.29;52.36
4085;BME280;2057;50.858;6.572;2022-09-03T12:31:25;99827.09;;;25.52;52.22
4085;BME280;2057;50.858;6.572;2022-09-03T12:34:02;99826.31;;;25.49;52.38
4085;BME280;2057;50.858;6.572;2022-09-03T12:36:46;99824.00;;;25.73;52.20
4085;BME280;2057;50.858;6.572;2022-09-03T12:39:16;99827.47;;;25.72;51.66
4085;BME280;2057;50.858;6.572;2022-09-03T12:47:09;99828.16;;;26.48;50.47
4085;BME280;2057;50.858;6.572;2022-09-03T12:49:37;99830.13;;;26.71;50.40
4085;BME280;2057;50.858;6.572;2022-09-03T12:52:13;99821.69;;;26.62;50.20
4085;BME280;2057;50.858;6.572;2022-09-03T12:57:22;99810.50;;;26.90;49.98
4085;BME280;2057;50.858;6.572;2022-09-03T12:59:53;99807.16;;;26.85;49.91
4085;BME280;2057;50.858;6.572;2022-09-03T13:02:25;99806.63;;;27.04;50.07
4085;BME280;2057;50.858;6.572;2022-09-03T13:04:52;99809.94;;;27.09;49.99
4085;BME280;2057;50.858;6.572;2022-09-03T13:07:32;99814.91;;;27.45;49.07
4085;BME280;2057;50.858;6.572;2022-09-03T13:10:06;99816.53;;;27.76;48.52
4085;BME280;2057;50.858;6.572;2022-09-03T13:12:45;99817.50;;;27.74;48.32
4085;BME280;2057;50.858;6.572;2022-09-03T13:15:20;99813.72;;;27.55;48.89
4085;BME280;2057;50.858;6.572;2022-09-03T13:23:03;99812.88;;;27.82;48.95
4085;BME280;2057;50.858;6.572;2022-09-03T13:25:54;99810.50;;;28.01;47.94
4085;BME280;2057;50.858;6.572;2022-09-03T13:36:55;99814.88;;;28.26;46.68
4085;BME280;2057;50.858;6.572;2022-09-03T13:39:27;99819.13;;;28.54;46.86
4085;BME280;2057;50.858;6.572;2022-09-03T13:45:00;99824.59;;;28.46;46.90
4085;BME280;2057;50.858;6.572;2022-09-03T13:47:47;99819.09;;;28.30;47.25
4085;BME280;2057;50.858;6.572;2022-09-03T13:50:46;99814.81;;;28.02;47.65
4085;BME280;2057;50.858;6.572;2022-09-03T13:55:51;99816.84;;;27.92;48.08
4085;BME280;2057;50.858;6.572;2022-09-03T14:01:13;99812.69;;;27.33;49.27
4085;BME280;2057;50.858;6.572;2022-09-03T14:03:47;99809.56;;;27.21;49.81
4085;BME280;2057;50.858;6.572;2022-09-03T14:09:20;99813.94;;;26.91;49.28
4085;BME280;2057;50.858;6.572;2022-09-03T14:12:13;99809.13;;;26.77;50.05
4085;BME280;2057;50.858;6.572;2022-09-03T14:17:51;99820.44;;;27.63;49.04
4085;BME280;2057;50.858;6.572;2022-09-03T14:20:27;99821.16;;;27.68;49.19
4085;BME280;2057;50.858;6.572;2022-09-03T14:25:37;99817.28;;;27.24;48.89
4085;BME280;2057;50.858;6.572;2022-09-03T14:36:40;99831.91;;;27.00;50.73
4085;BME280;2057;50.858;6.572;2022-09-03T14:41:59;99825.16;;;26.30;53.30
4085;BME280;2057;50.858;6.572;2022-09-03T15:01:28;99832.53;;;27.37;51.33
4085;BME280;2057;50.858;6.572;2022-09-03T15:04:23;99836.06;;;27.91;50.05
4085;BME280;2057;50.858;6.572;2022-09-03T15:07:07;99834.03;;;28.26;48.44
4085;BME280;2057;50.858;6.572;2022-09-03T15:10:14;99834.88;;;28.76;48.06
4085;BME280;2057;50.858;6.572;2022-09-03T15:18:36;99840.41;;;29.14;45.52
4085;BME280;2057;50.858;6.572;2022-09-03T15:24:23;99834.88;;;28.00;46.82
4085;BME280;2057;50.858;6.572;2022-09-03T15:27:06;99836.97;;;27.35;48.76
4085;BME280;2057;50.858;6.572;2022-09-03T15:32:28;99836.56;;;26.90;50.42
4085;BME280;2057;50.858;6.572;2022-09-03T15:35:05;99846.84;;;26.62;52.62
4085;BME280;2057;50.858;6.572;2022-09-03T15:37:37;99844.66;;;26.48;55.46
4085;BME280;2057;50.858;6.572;2022-09-03T15:42:50;99842.28;;;26.04;57.85
4085;BME280;2057;50.858;6.572;2022-09-03T15:45:37;99850.44;;;25.92;57.63
4085;BME280;2057;50.858;6.572;2022-09-03T15:48:33;99852.59;;;25.74;57.68
4085;BME280;2057;50.858;6.572;2022-09-03T15:51:26;99843.72;;;25.81;57.72
4085;BME280;2057;50.858;6.572;2022-09-03T15:54:15;99849.47;;;25.58;58.04
4085;BME280;2057;50.858;6.572;2022-09-03T15:57:06;99849.81;;;25.44;58.91
4085;BME280;2057;50.858;6.572;2022-09-03T15:59:48;99845.94;;;25.61;58.52
4085;BME280;2057;50.858;6.572;2022-09-03T16:03:01;99855.97;;;25.40;60.21
4085;BME280;2057;50.858;6.572;2022-09-03T16:05:43;99855.09;;;25.40;59.64
4085;BME280;2057;50.858;6.572;2022-09-03T16:11:00;99862.59;;;25.13;60.03
4085;BME280;2057;50.858;6.572;2022-09-03T16:16:05;99871.63;;;24.93;61.62
4085;BME280;2057;50.858;6.572;2022-09-03T16:18:46;99875.44;;;24.77;61.71
4085;BME280;2057;50.858;6.572;2022-09-03T16:21:47;99867.06;;;24.61;63.01
4085;BME280;2057;50.858;6.572;2022-09-03T16:24:25;99878.72;;;24.39;64.87
4085;BME280;2057;50.858;6.572;2022-09-03T16:27:02;99880.34;;;24.43;65.48
4085;BME280;2057;50.858;6.572;2022-09-03T16:29:30;99885.34;;;24.06;67.59
4085;BME280;2057;50.858;6.572;2022-09-03T16:37:30;99879.06;;;24.18;69.05
4085;BME280;2057;50.858;6.572;2022-09-03T16:51:16;99879.56;;;24.40;65.94
4085;BME280;2057;50.858;6.572;2022-09-03T16:53:59;99877.50;;;24.09;66.50
4085;BME280;2057;50.858;6.572;2022-09-03T16:57:04;99877.94;;;23.79;67.41
4085;BME280;2057;50.858;6.572;2022-09-03T16:59:48;99879.50;;;23.91;66.58
4085;BME280;2057;50.858;6.572;2022-09-03T17:15:19;99879.94;;;23.60;68.38
4085;BME280;2057;50.858;6.572;2022-09-03T17:18:12;99879.63;;;23.80;67.53
4085;BME280;2057;50.858;6.572;2022-09-03T17:21:03;99879.81;;;23.70;68.03
4085;BME280;2057;50.858;6.572;2022-09-03T17:23:47;99875.44;;;23.73;68.28
4085;BME280;2057;50.858;6.572;2022-09-03T17:26:36;99880.72;;;23.67;68.33
4085;BME280;2057;50.858;6.572;2022-09-03T17:40:02;99883.81;;;23.30;70.93